sensor_id;sensor_type;location;lat;lon;timestamp;P1;durP1;ratioP1;P2;durP2;ratioP2
7074;SDS011;3578;51.568;6.932;2023-04-03T00:00:34;5.60;;;5.20;;
7074;SDS011;3578;51.568;6.932;2023-04-03T00:03:01;6.53;;;5.53;;
7074;SDS011;3578;51.568;6.932;2023-04-03T00:05:28;6.70;;;5.93;;
7074;SDS011;3578;51.568;6.932;2023-04-03T00:07:55;6.77;;;5.43;;
7074;SDS011;3578;51.568;6.932;2023-04-03T00:10:22;6.17;;;5.63;;
7074;SDS011;3578;51.568;6.932;2023-04-03T00:12:49;6.97;;;6.13;;
7074;SDS011;3578;51.568;6.932;2023-04-03T00:15:16;9.60;;;7.30;;
7074;SDS011;3578;51.568;6.932;2023-04-03T00:17:45;7.40;;;6.50;;
7074;SDS011;3578;51.568;6.932;2023-04-03T00:20:12;6.43;;;5.70;;
7074;SDS011;3578;51.568;6.932;2023-04-03T00:22:39;6.80;;;6.07;;
7074;SDS011;3578;51.568;6.932;2023-04-03T00:25:06;7.07;;;6.47;;
7074;SDS011;3578;51.568;6.932;2023-04-03T00:27:35;6.70;;;6.13;;
7074;SDS011;3578;51.568;6.932;2023-04-03T00:30:05;8.10;;;7.30;;
7074;SDS011;3578;51.568;6.932;2023-04-03T00:32:36;8.03;;;6.67;;
7074;SDS011;3578;51.568;6.932;2023-04-03T00:35:05;10.97;;;7.03;;
7074;SDS011;3578;51.568;6.932;2023-04-03T00:37:33;7.80;;;7.00;;
7074;SDS011;3578;51.568;6.932;2023-04-03T00:40:01;8.83;;;8.03;;
7074;SDS011;3578;51.568;6.932;2023-04-03T00:42:29;8.37;;;7.53;;
7074;SDS011;3578;51.568;6.932;2023-04-03T00:47:59;11.13;;;7.87;;
7074;SDS011;3578;51.568;6.932;2023-04-03T00:50:32;7.87;;;5.73;;
7074;SDS011;3578;51.568;6.932;2023-04-03T00:53:02;8.97;;;7.73;;
7074;SDS011;3578;51.568;6.932;2023-04-03T00:55:32;9.03;;;5.07;;
7074;SDS011;3578;51.568;6.932;2023-04-03T00:58:01;7.47;;;6.47;;
7074;SDS011;3578;51.568;6.932;2023-04-03T01:00:29;12.27;;;4.43;;
7074;SDS011;3578;51.568;6.932;2023-04-03T01:02:56;4.47;;;4.07;;
7074;SDS011;3578;51.568;6.932;2023-04-03T01:05:23;7.80;;;4.30;;
7074;SDS011;3578;51.568;6.932;2023-04-03T01:07:52;4.33;;;3.57;;
7074;SDS011;3578;51.568;6.932;2023-04-03T01:10:20;5.87;;;3.37;;
7074;SDS011;3578;51.568;6.932;2023-04-03T01:12:48;10.30;;;3.30;;
7074;SDS011;3578;51.568;6.932;2023-04-03T01:15:17;5.70;;;3.17;;
7074;SDS011;3578;51.568;6.932;2023-04-03T01:17:48;10.93;;;3.30;;
7074;SDS011;3578;51.568;6.932;2023-04-03T01:20:34;7.30;;;3.17;;
7074;SDS011;3578;51.568;6.932;2023-04-03T01:23:40;11.40;;;3.73;;
7074;SDS011;3578;51.568;6.932;2023-04-03T01:26:23;3.43;;;3.07;;
7074;SDS011;3578;51.568;6.932;2023-04-03T01:28:53;11.03;;;3.00;;
7074;SDS011;3578;51.568;6.932;2023-04-03T01:31:22;5.10;;;2.90;;
7074;SDS011;3578;51.568;6.932;2023-04-03T01:33:54;8.50;;;3.43;;
7074;SDS011;3578;51.568;6.932;2023-04-03T01:36:22;3.90;;;3.00;;
7074;SDS011;3578;51.568;6.932;2023-04-03T01:38:53;2.97;;;2.70;;
7074;SDS011;3578;51.568;6.932;2023-04-03T01:41:21;3.73;;;2.30;;
7074;SDS011;3578;51.568;6.932;2023-04-03T01:43:48;10.07;;;2.80;;
7074;SDS011;3578;51.568;6.932;2023-04-03T01:46:16;7.53;;;3.50;;
7074;SDS011;3578;51.568;6.932;2023-04-03T01:48:43;4.77;;;2.47;;
7074;SDS011;3578;51.568;6.932;2023-04-03T01:51:12;5.70;;;3.27;;
7074;SDS011;3578;51.568;6.932;2023-04-03T01:53:39;6.67;;;3.07;;
7074;SDS011;3578;51.568;6.932;2023-04-03T01:56:06;4.23;;;2.83;;
7074;SDS011;3578;51.568;6.932;2023-04-03T01:58:34;5.27;;;2.67;;
7074;SDS011;3578;51.568;6.932;2023-04-03T02:01:01;5.27;;;2.80;;
7074;SDS011;3578;51.568;6.932;2023-04-03T02:03:29;32.97;;;4.87;;
7074;SDS011;3578;51.568;6.932;2023-04-03T02:05:56;15.90;;;3.30;;
7074;SDS011;3578;51.568;6.932;2023-04-03T02:08:24;14.77;;;3.63;;
7074;SDS011;3578;51.568;6.932;2023-04-03T02:10:51;12.37;;;3.17;;
7074;SDS011;3578;51.568;6.932;2023-04-03T02:13:18;7.10;;;3.00;;
7074;SDS011;3578;51.568;6.932;2023-04-03T02:15:46;6.07;;;2.30;;
7074;SDS011;3578;51.568;6.932;2023-04-03T02:18:13;7.13;;;3.60;;
7074;SDS011;3578;51.568;6.932;2023-04-03T02:20:41;7.17;;;2.90;;
7074;SDS011;3578;51.568;6.932;2023-04-03T02:23:08;7.43;;;2.60;;
7074;SDS011;3578;51.568;6.932;2023-04-03T02:25:36;3.50;;;2.30;;
7074;SDS011;3578;51.568;6.932;2023-04-03T02:28:03;7.20;;;2.80;;
7074;SDS011;3578;51.568;6.932;2023-04-03T02:30:31;10.17;;;2.90;;
7074;SDS011;3578;51.568;6.932;2023-04-03T02:32:58;7.47;;;2.67;;
7074;SDS011;3578;51.568;6.932;2023-04-03T02:35:25;3.63;;;2.67;;
7074;SDS011;3578;51.568;6.932;2023-04-03T02:37:52;6.37;;;2.53;;
7074;SDS011;3578;51.568;6.932;2023-04-03T02:40:19;13.77;;;2.97;;
7074;SDS011;3578;51.568;6.932;2023-04-03T02:42:47;3.63;;;3.00;;
7074;SDS011;3578;51.568;6.932;2023-04-03T02:45:14;5.53;;;2.87;;
7074;SDS011;3578;51.568;6.932;2023-04-03T02:47:42;3.90;;;2.60;;
7074;SDS011;3578;51.568;6.932;2023-04-03T02:50:09;13.43;;;3.43;;
7074;SDS011;3578;51.568;6.932;2023-04-03T02:52:36;9.43;;;2.67;;
7074;SDS011;3578;51.568;6.932;2023-04-03T02:55:03;5.40;;;2.57;;
7074;SDS011;3578;51.568;6.932;2023-04-03T02:57:31;3.33;;;2.20;;
7074;SDS011;3578;51.568;6.932;2023-04-03T02:59:59;4.17;;;2.70;;
7074;SDS011;3578;51.568;6.932;2023-04-03T03:02:26;11.10;;;2.53;;
7074;SDS011;3578;51.568;6.932;2023-04-03T03:04:53;9.63;;;2.70;;
7074;SDS011;3578;51.568;6.932;2023-04-03T03:07:20;4.00;;;2.37;;
7074;SDS011;3578;51.568;6.932;2023-04-03T03:09:47;4.13;;;2.23;;
7074;SDS011;3578;51.568;6.932;2023-04-03T03:12:14;6.43;;;2.37;;
7074;SDS011;3578;51.568;6.932;2023-04-03T03:14:46;4.73;;;2.40;;
7074;SDS011;3578;51.568;6.932;2023-04-03T03:17:14;2.23;;;2.00;;
7074;SDS011;3578;51.568;6.932;2023-04-03T03:19:41;6.43;;;3.23;;
7074;SDS011;3578;51.568;6.932;2023-04-03T03:22:09;4.23;;;2.73;;
7074;SDS011;3578;51.568;6.932;2023-04-03T03:24:36;6.70;;;3.00;;
7074;SDS011;3578;51.568;6.932;2023-04-03T03:27:02;5.27;;;3.13;;
7074;SDS011;3578;51.568;6.932;2023-04-03T03:29:30;4.73;;;2.30;;
7074;SDS011;3578;51.568;6.932;2023-04-03T03:31:57;6.73;;;2.17;;
7074;SDS011;3578;51.568;6.932;2023-04-03T03:34:25;6.20;;;3.30;;
7074;SDS011;3578;51.568;6.932;2023-04-03T03:36:53;5.20;;;2.77;;
7074;SDS011;3578;51.568;6.932;2023-04-03T03:39:20;9.30;;;3.10;;
7074;SDS011;3578;51.568;6.932;2023-04-03T03:41:47;3.00;;;2.47;;
7074;SDS011;3578;51.568;6.932;2023-04-03T03:44:14;4.73;;;2.20;;
7074;SDS011;3578;51.568;6.932;2023-04-03T03:46:41;4.07;;;2.40;;
7074;SDS011;3578;51.568;6.932;2023-04-03T03:49:08;4.60;;;2.60;;
7074;SDS011;3578;51.568;6.932;2023-04-03T03:51:37;6.60;;;2.47;;
7074;SDS011;3578;51.568;6.932;2023-04-03T03:54:05;4.07;;;2.80;;
7074;SDS011;3578;51.568;6.932;2023-04-03T03:56:33;5.57;;;2.73;;
7074;SDS011;3578;51.568;6.932;2023-04-03T03:59:00;6.03;;;2.83;;
7074;SDS011;3578;51.568;6.932;2023-04-03T04:01:27;4.47;;;2.63;;
7074;SDS011;3578;51.568;6.932;2023-04-03T04:03:54;3.43;;;2.67;;
7074;SDS011;3578;51.568;6.932;2023-04-03T04:06:22;5.60;;;2.53;;
7074;SDS011;3578;51.568;6.932;2023-04-03T04:08:50;6.10;;;2.57;;
7074;SDS011;3578;51.568;6.932;2023-04-03T04:11:17;4.90;;;2.40;;
7074;SDS011;3578;51.568;6.932;2023-04-03T04:13:44;12.77;;;2.77;;
7074;SDS011;3578;51.568;6.932;2023-04-03T04:16:11;5.07;;;2.50;;
7074;SDS011;3578;51.568;6.932;2023-04-03T04:18:38;4.10;;;2.37;;
7074;SDS011;3578;51.568;6.932;2023-04-03T04:21:05;6.90;;;3.20;;
7074;SDS011;3578;51.568;6.932;2023-04-03T04:23:32;4.57;;;2.87;;
7074;SDS011;3578;51.568;6.932;2023-04-03T04:26:01;15.20;;;3.17;;
7074;SDS011;3578;51.568;6.932;2023-04-03T04:28:28;11.63;;;3.33;;
7074;SDS011;3578;51.568;6.932;2023-04-03T04:30:55;6.80;;;3.03;;
7074;SDS011;3578;51.568;6.932;2023-04-03T04:33:22;9.00;;;3.10;;
7074;SDS011;3578;51.568;6.932;2023-04-03T04:35:49;8.20;;;2.90;;
7074;SDS011;3578;51.568;6.932;2023-04-03T04:38:16;5.93;;;3.47;;
7074;SDS011;3578;51.568;6.932;2023-04-03T04:40:44;4.90;;;3.10;;
7074;SDS011;3578;51.568;6.932;2023-04-03T04:43:12;7.03;;;3.07;;
7074;SDS011;3578;51.568;6.932;2023-04-03T04:45:40;2.90;;;2.60;;
7074;SDS011;3578;51.568;6.932;2023-04-03T04:48:07;8.90;;;2.70;;
7074;SDS011;3578;51.568;6.932;2023-04-03T04:50:34;14.43;;;3.03;;
7074;SDS011;3578;51.568;6.932;2023-04-03T04:53:01;103.83;;;11.13;;
7074;SDS011;3578;51.568;6.932;2023-04-03T04:55:29;30.83;;;4.60;;
7074;SDS011;3578;51.568;6.932;2023-04-03T04:57:56;34.40;;;4.43;;
7074;SDS011;3578;51.568;6.932;2023-04-03T05:00:24;37.97;;;5.80;;
7074;SDS011;3578;51.568;6.932;2023-04-03T05:02:51;5.37;;;3.10;;
7074;SDS011;3578;51.568;6.932;2023-04-03T05:05:18;4.67;;;2.70;;
7074;SDS011;3578;51.568;6.932;2023-04-03T05:07:45;6.37;;;2.67;;
7074;SDS011;3578;51.568;6.932;2023-04-03T05:10:12;6.77;;;2.80;;
7074;SDS011;3578;51.568;6.932;2023-04-03T05:12:39;7.17;;;3.00;;
7074;SDS011;3578;51.568;6.932;2023-04-03T05:15:06;15.20;;;3.80;;
7074;SDS011;3578;51.568;6.932;2023-04-03T05:17:36;19.33;;;3.07;;
7074;SDS011;3578;51.568;6.932;2023-04-03T05:20:03;5.00;;;2.30;;
7074;SDS011;3578;51.568;6.932;2023-04-03T05:22:33;5.73;;;2.60;;
7074;SDS011;3578;51.568;6.932;2023-04-03T05:25:00;47.70;;;8.00;;
7074;SDS011;3578;51.568;6.932;2023-04-03T05:27:27;12.60;;;3.27;;
7074;SDS011;3578;51.568;6.932;2023-04-03T05:29:54;16.93;;;5.50;;
7074;SDS011;3578;51.568;6.932;2023-04-03T05:32:22;18.23;;;3.47;;
7074;SDS011;3578;51.568;6.932;2023-04-03T05:34:53;32.70;;;4.63;;
7074;SDS011;3578;51.568;6.932;2023-04-03T05:37:20;6.73;;;3.63;;
7074;SDS011;3578;51.568;6.932;2023-04-03T05:39:47;5.10;;;2.83;;
7074;SDS011;3578;51.568;6.932;2023-04-03T05:42:14;5.70;;;2.60;;
7074;SDS011;3578;51.568;6.932;2023-04-03T05:44:41;4.83;;;3.00;;
7074;SDS011;3578;51.568;6.932;2023-04-03T05:47:09;8.47;;;2.87;;
7074;SDS011;3578;51.568;6.932;2023-04-03T05:49:36;7.87;;;3.27;;
7074;SDS011;3578;51.568;6.932;2023-04-03T05:52:08;9.10;;;2.40;;
7074;SDS011;3578;51.568;6.932;2023-04-03T05:54:43;6.00;;;2.90;;
7074;SDS011;3578;51.568;6.932;2023-04-03T05:57:13;4.40;;;2.77;;
7074;SDS011;3578;51.568;6.932;2023-04-03T05:59:40;5.53;;;2.50;;
7074;SDS011;3578;51.568;6.932;2023-04-03T06:02:09;8.23;;;3.50;;
7074;SDS011;3578;51.568;6.932;2023-04-03T06:04:39;8.03;;;3.00;;
7074;SDS011;3578;51.568;6.932;2023-04-03T06:07:09;4.10;;;2.83;;
7074;SDS011;3578;51.568;6.932;2023-04-03T06:09:38;7.53;;;3.37;;
7074;SDS011;3578;51.568;6.932;2023-04-03T06:12:05;5.00;;;2.70;;
7074;SDS011;3578;51.568;6.932;2023-04-03T06:14:32;20.27;;;4.57;;
7074;SDS011;3578;51.568;6.932;2023-04-03T06:17:00;8.83;;;3.43;;
7074;SDS011;3578;51.568;6.932;2023-04-03T06:19:27;12.50;;;3.33;;
7074;SDS011;3578;51.568;6.932;2023-04-03T06:21:54;3.73;;;2.10;;
7074;SDS011;3578;51.568;6.932;2023-04-03T06:24:23;9.13;;;2.90;;
7074;SDS011;3578;51.568;6.932;2023-04-03T06:26:50;3.23;;;2.40;;
7074;SDS011;3578;51.568;6.932;2023-04-03T06:29:18;5.63;;;2.87;;
7074;SDS011;3578;51.568;6.932;2023-04-03T06:31:46;7.33;;;2.93;;
7074;SDS011;3578;51.568;6.932;2023-04-03T06:34:13;10.93;;;3.53;;
7074;SDS011;3578;51.568;6.932;2023-04-03T06:36:40;5.53;;;3.07;;
7074;SDS011;3578;51.568;6.932;2023-04-03T06:39:08;9.43;;;2.70;;
7074;SDS011;3578;51.568;6.932;2023-04-03T06:41:39;3.50;;;2.63;;
7074;SDS011;3578;51.568;6.932;2023-04-03T06:44:06;10.07;;;2.93;;
7074;SDS011;3578;51.568;6.932;2023-04-03T06:46:36;13.83;;;3.57;;
7074;SDS011;3578;51.568;6.932;2023-04-03T06:49:03;8.60;;;3.10;;
7074;SDS011;3578;51.568;6.932;2023-04-03T06:51:32;13.57;;;2.67;;
7074;SDS011;3578;51.568;6.932;2023-04-03T06:54:01;7.40;;;3.57;;
7074;SDS011;3578;51.568;6.932;2023-04-03T06:56:30;12.27;;;2.90;;
7074;SDS011;3578;51.568;6.932;2023-04-03T06:58:58;4.10;;;2.53;;
7074;SDS011;3578;51.568;6.932;2023-04-03T07:01:26;8.90;;;3.03;;
7074;SDS011;3578;51.568;6.932;2023-04-03T07:03:55;13.10;;;3.10;;
7074;SDS011;3578;51.568;6.932;2023-04-03T07:06:22;5.53;;;2.83;;
7074;SDS011;3578;51.568;6.932;2023-04-03T07:08:51;7.53;;;3.10;;
7074;SDS011;3578;51.568;6.932;2023-04-03T07:11:19;12.33;;;3.07;;
7074;SDS011;3578;51.568;6.932;2023-04-03T07:13:46;6.83;;;2.37;;
7074;SDS011;3578;51.568;6.932;2023-04-03T07:16:14;4.03;;;2.37;;
7074;SDS011;3578;51.568;6.932;2023-04-03T07:18:41;5.03;;;2.23;;
7074;SDS011;3578;51.568;6.932;2023-04-03T07:21:08;10.43;;;3.23;;
7074;SDS011;3578;51.568;6.932;2023-04-03T07:23:35;5.03;;;2.93;;
7074;SDS011;3578;51.568;6.932;2023-04-03T07:26:02;4.00;;;2.57;;
7074;SDS011;3578;51.568;6.932;2023-04-03T07:28:30;24.07;;;4.23;;
7074;SDS011;3578;51.568;6.932;2023-04-03T07:31:00;3.93;;;2.33;;
7074;SDS011;3578;51.568;6.932;2023-04-03T07:33:32;5.27;;;2.10;;
7074;SDS011;3578;51.568;6.932;2023-04-03T07:36:00;8.93;;;2.57;;
7074;SDS011;3578;51.568;6.932;2023-04-03T07:38:27;12.07;;;2.80;;
7074;SDS011;3578;51.568;6.932;2023-04-03T07:40:54;4.57;;;2.20;;
7074;SDS011;3578;51.568;6.932;2023-04-03T07:43:21;7.90;;;3.10;;
7074;SDS011;3578;51.568;6.932;2023-04-03T07:45:49;6.40;;;2.70;;
7074;SDS011;3578;51.568;6.932;2023-04-03T07:48:17;4.40;;;2.40;;
7074;SDS011;3578;51.568;6.932;2023-04-03T07:50:46;3.87;;;2.13;;
7074;SDS011;3578;51.568;6.932;2023-04-03T07:53:13;10.43;;;2.87;;
7074;SDS011;3578;51.568;6.932;2023-04-03T07:55:40;10.20;;;2.27;;
7074;SDS011;3578;51.568;6.932;2023-04-03T07:58:09;5.50;;;2.37;;
7074;SDS011;3578;51.568;6.932;2023-04-03T08:00:38;5.43;;;3.13;;
7074;SDS011;3578;51.568;6.932;2023-04-03T08:03:05;2.97;;;2.63;;
7074;SDS011;3578;51.568;6.932;2023-04-03T08:05:35;23.63;;;4.10;;
7074;SDS011;3578;51.568;6.932;2023-04-03T08:08:05;2.20;;;1.67;;
7074;SDS011;3578;51.568;6.932;2023-04-03T08:10:33;4.63;;;2.33;;
7074;SDS011;3578;51.568;6.932;2023-04-03T08:13:00;4.00;;;2.13;;
7074;SDS011;3578;51.568;6.932;2023-04-03T08:15:28;8.03;;;2.20;;
7074;SDS011;3578;51.568;6.932;2023-04-03T08:17:56;6.90;;;2.00;;
7074;SDS011;3578;51.568;6.932;2023-04-03T08:20:24;11.20;;;2.97;;
7074;SDS011;3578;51.568;6.932;2023-04-03T08:22:51;4.90;;;2.33;;
7074;SDS011;3578;51.568;6.932;2023-04-03T08:25:19;9.53;;;2.23;;
7074;SDS011;3578;51.568;6.932;2023-04-03T08:27:47;5.87;;;2.30;;
7074;SDS011;3578;51.568;6.932;2023-04-03T08:30:14;5.23;;;2.50;;
7074;SDS011;3578;51.568;6.932;2023-04-03T08:32:41;3.53;;;2.33;;
7074;SDS011;3578;51.568;6.932;2023-04-03T08:35:09;4.50;;;2.50;;
7074;SDS011;3578;51.568;6.932;2023-04-03T08:37:36;9.20;;;2.40;;
7074;SDS011;3578;51.568;6.932;2023-04-03T08:40:04;2.50;;;2.20;;
7074;SDS011;3578;51.568;6.932;2023-04-03T08:42:39;5.70;;;2.33;;
7074;SDS011;3578;51.568;6.932;2023-04-03T08:45:18;4.57;;;2.10;;
7074;SDS011;3578;51.568;6.932;2023-04-03T08:47:52;16.17;;;2.60;;
7074;SDS011;3578;51.568;6.932;2023-04-03T08:50:26;5.37;;;2.20;;
7074;SDS011;3578;51.568;6.932;2023-04-03T08:52:58;12.07;;;2.43;;
7074;SDS011;3578;51.568;6.932;2023-04-03T08:55:31;8.80;;;2.70;;
7074;SDS011;3578;51.568;6.932;2023-04-03T08:58:02;6.93;;;2.40;;
7074;SDS011;3578;51.568;6.932;2023-04-03T09:00:34;3.50;;;2.23;;
7074;SDS011;3578;51.568;6.932;2023-04-03T09:03:11;3.87;;;2.03;;
7074;SDS011;3578;51.568;6.932;2023-04-03T09:05:41;2.53;;;2.00;;
7074;SDS011;3578;51.568;6.932;2023-04-03T09:08:14;8.83;;;2.73;;
7074;SDS011;3578;51.568;6.932;2023-04-03T09:10:52;2.17;;;1.73;;
7074;SDS011;3578;51.568;6.932;2023-04-03T09:13:43;7.70;;;2.80;;
7074;SDS011;3578;51.568;6.932;2023-04-03T09:16:25;9.80;;;2.87;;
7074;SDS011;3578;51.568;6.932;2023-04-03T09:19:02;7.03;;;2.30;;
7074;SDS011;3578;51.568;6.932;2023-04-03T09:21:41;6.10;;;2.37;;
7074;SDS011;3578;51.568;6.932;2023-04-03T09:24:09;24.43;;;3.83;;
7074;SDS011;3578;51.568;6.932;2023-04-03T09:26:40;9.50;;;2.53;;
7074;SDS011;3578;51.568;6.932;2023-04-03T09:29:14;6.30;;;2.00;;
7074;SDS011;3578;51.568;6.932;2023-04-03T09:31:46;3.27;;;1.90;;
7074;SDS011;3578;51.568;6.932;2023-04-03T09:34:17;5.97;;;2.60;;
7074;SDS011;3578;51.568;6.932;2023-04-03T09:36:49;5.10;;;2.00;;
7074;SDS011;3578;51.568;6.932;2023-04-03T09:39:18;7.37;;;2.60;;
7074;SDS011;3578;51.568;6.932;2023-04-03T09:41:55;2.07;;;1.37;;
7074;SDS011;3578;51.568;6.932;2023-04-03T09:44:26;9.53;;;1.87;;
7074;SDS011;3578;51.568;6.932;2023-04-03T09:46:56;2.40;;;1.73;;
7074;SDS011;3578;51.568;6.932;2023-04-03T09:49:23;4.53;;;1.90;;
7074;SDS011;3578;51.568;6.932;2023-04-03T09:51:51;5.60;;;2.10;;
7074;SDS011;3578;51.568;6.932;2023-04-03T09:54:30;45.50;;;3.83;;
7074;SDS011;3578;51.568;6.932;2023-04-03T09:57:04;2.30;;;1.63;;
7074;SDS011;3578;51.568;6.932;2023-04-03T09:59:43;17.00;;;3.07;;
7074;SDS011;3578;51.568;6.932;2023-04-03T10:02:21;6.00;;;2.00;;
7074;SDS011;3578;51.568;6.932;2023-04-03T10:04:58;1.53;;;1.43;;
7074;SDS011;3578;51.568;6.932;2023-04-03T10:07:26;3.90;;;1.53;;
7074;SDS011;3578;51.568;6.932;2023-04-03T10:09:57;3.80;;;1.97;;
7074;SDS011;3578;51.568;6.932;2023-04-03T10:12:28;6.23;;;2.50;;
7074;SDS011;3578;51.568;6.932;2023-04-03T10:14:57;8.80;;;1.90;;
7074;SDS011;3578;51.568;6.932;2023-04-03T10:17:29;4.00;;;1.80;;
7074;SDS011;3578;51.568;6.932;2023-04-03T10:20:19;6.40;;;1.80;;
7074;SDS011;3578;51.568;6.932;2023-04-03T10:23:02;5.70;;;2.50;;
7074;SDS011;3578;51.568;6.932;2023-04-03T10:25:43;4.90;;;1.70;;
7074;SDS011;3578;51.568;6.932;2023-04-03T10:28:27;2.17;;;1.60;;
7074;SDS011;3578;51.568;6.932;2023-04-03T10:31:04;7.17;;;2.53;;
7074;SDS011;3578;51.568;6.932;2023-04-03T10:33:45;7.30;;;2.00;;
7074;SDS011;3578;51.568;6.932;2023-04-03T10:36:27;8.10;;;2.10;;
7074;SDS011;3578;51.568;6.932;2023-04-03T10:39:05;6.40;;;2.17;;
7074;SDS011;3578;51.568;6.932;2023-04-03T10:41:51;8.67;;;1.90;;
7074;SDS011;3578;51.568;6.932;2023-04-03T10:44:30;1.70;;;1.60;;
7074;SDS011;3578;51.568;6.932;2023-04-03T10:47:10;4.97;;;1.60;;
7074;SDS011;3578;51.568;6.932;2023-04-03T10:49:46;3.23;;;2.27;;
7074;SDS011;3578;51.568;6.932;2023-04-03T10:52:23;2.10;;;1.90;;
7074;SDS011;3578;51.568;6.932;2023-04-03T10:55:06;1.57;;;1.50;;
7074;SDS011;3578;51.568;6.932;2023-04-03T10:57:49;6.47;;;2.10;;
7074;SDS011;3578;51.568;6.932;2023-04-03T11:00:17;7.97;;;2.10;;
7074;SDS011;3578;51.568;6.932;2023-04-03T11:02:53;9.93;;;2.30;;
7074;SDS011;3578;51.568;6.932;2023-04-03T11:05:26;2.87;;;1.80;;
7074;SDS011;3578;51.568;6.932;2023-04-03T11:07:59;7.17;;;1.90;;
7074;SDS011;3578;51.568;6.932;2023-04-03T11:10:36;7.63;;;1.93;;
7074;SDS011;3578;51.568;6.932;2023-04-03T11:13:08;4.00;;;2.10;;
7074;SDS011;3578;51.568;6.932;2023-04-03T11:15:42;2.93;;;2.10;;
7074;SDS011;3578;51.568;6.932;2023-04-03T11:18:12;1.70;;;1.60;;
7074;SDS011;3578;51.568;6.932;2023-04-03T11:20:44;1.80;;;1.70;;
7074;SDS011;3578;51.568;6.932;2023-04-03T11:23:24;6.13;;;2.40;;
7074;SDS011;3578;51.568;6.932;2023-04-03T11:25:53;11.03;;;2.17;;
7074;SDS011;3578;51.568;6.932;2023-04-03T11:28:33;10.30;;;1.87;;
7074;SDS011;3578;51.568;6.932;2023-04-03T11:31:02;1.70;;;1.60;;
7074;SDS011;3578;51.568;6.932;2023-04-03T11:33:45;4.93;;;1.80;;
7074;SDS011;3578;51.568;6.932;2023-04-03T11:36:34;1.80;;;1.70;;
7074;SDS011;3578;51.568;6.932;2023-04-03T11:39:09;7.73;;;1.70;;
7074;SDS011;3578;51.568;6.932;2023-04-03T11:41:46;5.73;;;2.13;;
7074;SDS011;3578;51.568;6.932;2023-04-03T11:47:01;6.70;;;1.83;;
7074;SDS011;3578;51.568;6.932;2023-04-03T11:49:52;2.17;;;1.83;;
7074;SDS011;3578;51.568;6.932;2023-04-03T11:58:22;11.07;;;2.10;;
7074;SDS011;3578;51.568;6.932;2023-04-03T12:00:57;5.03;;;1.57;;
7074;SDS011;3578;51.568;6.932;2023-04-03T12:09:56;2.47;;;1.47;;
7074;SDS011;3578;51.568;6.932;2023-04-03T12:24:35;3.60;;;1.90;;
7074;SDS011;3578;51.568;6.932;2023-04-03T12:27:17;5.90;;;1.97;;
7074;SDS011;3578;51.568;6.932;2023-04-03T12:29:51;3.17;;;1.60;;
7074;SDS011;3578;51.568;6.932;2023-04-03T12:35:29;4.50;;;1.83;;
7074;SDS011;3578;51.568;6.932;2023-04-03T12:38:15;2.97;;;1.40;;
7074;SDS011;3578;51.568;6.932;2023-04-03T12:41:21;13.90;;;2.17;;
7074;SDS011;3578;51.568;6.932;2023-04-03T12:44:01;2.57;;;1.63;;
7074;SDS011;3578;51.568;6.932;2023-04-03T12:46:47;2.20;;;1.50;;
7074;SDS011;3578;51.568;6.932;2023-04-03T12:49:26;3.77;;;1.60;;
7074;SDS011;3578;51.568;6.932;2023-04-03T12:52:04;2.73;;;1.87;;
7074;SDS011;3578;51.568;6.932;2023-04-03T12:54:42;22.53;;;2.50;;
7074;SDS011;3578;51.568;6.932;2023-04-03T12:57:20;5.60;;;2.00;;
7074;SDS011;3578;51.568;6.932;2023-04-03T12:59:50;6.53;;;1.90;;
7074;SDS011;3578;51.568;6.932;2023-04-03T13:02:21;17.03;;;2.70;;
7074;SDS011;3578;51.568;6.932;2023-04-03T13:04:52;11.53;;;1.50;;
7074;SDS011;3578;51.568;6.932;2023-04-03T13:07:24;11.30;;;2.20;;
7074;SDS011;3578;51.568;6.932;2023-04-03T13:12:48;2.17;;;1.47;;
7074;SDS011;3578;51.568;6.932;2023-04-03T13:15:17;2.63;;;1.93;;
7074;SDS011;3578;51.568;6.932;2023-04-03T13:17:47;5.77;;;2.00;;
7074;SDS011;3578;51.568;6.932;2023-04-03T13:20:18;5.60;;;2.30;;
7074;SDS011;3578;51.568;6.932;2023-04-03T13:22:51;6.23;;;1.80;;
7074;SDS011;3578;51.568;6.932;2023-04-03T13:25:26;3.77;;;1.80;;
7074;SDS011;3578;51.568;6.932;2023-04-03T13:27:58;1.50;;;1.40;;
7074;SDS011;3578;51.568;6.932;2023-04-03T13:30:28;8.83;;;3.10;;
7074;SDS011;3578;51.568;6.932;2023-04-03T13:32:58;3.67;;;1.83;;
7074;SDS011;3578;51.568;6.932;2023-04-03T13:35:31;4.70;;;1.67;;
7074;SDS011;3578;51.568;6.932;2023-04-03T13:38:04;4.13;;;1.40;;
7074;SDS011;3578;51.568;6.932;2023-04-03T13:40:48;17.20;;;2.70;;
7074;SDS011;3578;51.568;6.932;2023-04-03T13:43:19;2.93;;;1.50;;
7074;SDS011;3578;51.568;6.932;2023-04-03T13:45:56;2.63;;;1.53;;
7074;SDS011;3578;51.568;6.932;2023-04-03T13:48:34;3.07;;;1.67;;
7074;SDS011;3578;51.568;6.932;2023-04-03T13:51:12;13.47;;;2.53;;
7074;SDS011;3578;51.568;6.932;2023-04-03T13:53:47;9.70;;;2.30;;
7074;SDS011;3578;51.568;6.932;2023-04-03T13:56:18;9.80;;;2.40;;
7074;SDS011;3578;51.568;6.932;2023-04-03T13:58:54;2.70;;;1.80;;
7074;SDS011;3578;51.568;6.932;2023-04-03T14:01:32;6.50;;;1.70;;
7074;SDS011;3578;51.568;6.932;2023-04-03T14:04:13;8.43;;;1.97;;
7074;SDS011;3578;51.568;6.932;2023-04-03T14:06:44;37.17;;;3.63;;
7074;SDS011;3578;51.568;6.932;2023-04-03T14:09:11;2.80;;;1.73;;
7074;SDS011;3578;51.568;6.932;2023-04-03T14:11:40;1.90;;;1.30;;
7074;SDS011;3578;51.568;6.932;2023-04-03T14:14:11;3.67;;;1.80;;
7074;SDS011;3578;51.568;6.932;2023-04-03T14:16:43;11.83;;;1.90;;
7074;SDS011;3578;51.568;6.932;2023-04-03T14:19:14;9.07;;;1.80;;
7074;SDS011;3578;51.568;6.932;2023-04-03T14:21:47;2.53;;;1.63;;
7074;SDS011;3578;51.568;6.932;2023-04-03T14:24:15;10.67;;;2.40;;
7074;SDS011;3578;51.568;6.932;2023-04-03T14:26:44;7.53;;;1.97;;
7074;SDS011;3578;51.568;6.932;2023-04-03T14:29:13;11.40;;;2.27;;
7074;SDS011;3578;51.568;6.932;2023-04-03T14:31:42;1.60;;;1.50;;
7074;SDS011;3578;51.568;6.932;2023-04-03T14:34:11;3.97;;;1.73;;
7074;SDS011;3578;51.568;6.932;2023-04-03T14:36:40;2.00;;;1.87;;
7074;SDS011;3578;51.568;6.932;2023-04-03T14:39:10;4.73;;;2.00;;
7074;SDS011;3578;51.568;6.932;2023-04-03T14:41:42;9.43;;;1.90;;
7074;SDS011;3578;51.568;6.932;2023-04-03T14:44:11;8.70;;;2.00;;
7074;SDS011;3578;51.568;6.932;2023-04-03T14:46:41;5.30;;;1.60;;
7074;SDS011;3578;51.568;6.932;2023-04-03T14:49:12;6.97;;;1.97;;
7074;SDS011;3578;51.568;6.932;2023-04-03T14:51:43;12.40;;;2.07;;
7074;SDS011;3578;51.568;6.932;2023-04-03T14:54:12;4.60;;;2.00;;
7074;SDS011;3578;51.568;6.932;2023-04-03T14:56:42;15.67;;;2.47;;
7074;SDS011;3578;51.568;6.932;2023-04-03T14:59:11;15.57;;;2.17;;
7074;SDS011;3578;51.568;6.932;2023-04-03T15:01:42;3.90;;;1.70;;
7074;SDS011;3578;51.568;6.932;2023-04-03T15:04:10;14.77;;;2.57;;
7074;SDS011;3578;51.568;6.932;2023-04-03T15:06:39;10.17;;;2.03;;
7074;SDS011;3578;51.568;6.932;2023-04-03T15:09:09;2.40;;;1.60;;
7074;SDS011;3578;51.568;6.932;2023-04-03T15:11:46;3.17;;;2.10;;
7074;SDS011;3578;51.568;6.932;2023-04-03T15:14:14;11.73;;;2.70;;
7074;SDS011;3578;51.568;6.932;2023-04-03T15:16:42;7.07;;;2.00;;
7074;SDS011;3578;51.568;6.932;2023-04-03T15:19:09;3.17;;;1.80;;
7074;SDS011;3578;51.568;6.932;2023-04-03T15:21:37;2.53;;;1.90;;
7074;SDS011;3578;51.568;6.932;2023-04-03T15:24:05;5.70;;;2.27;;
7074;SDS011;3578;51.568;6.932;2023-04-03T15:26:32;13.13;;;2.00;;
7074;SDS011;3578;51.568;6.932;2023-04-03T15:28:59;5.37;;;2.10;;
7074;SDS011;3578;51.568;6.932;2023-04-03T15:31:28;5.87;;;1.60;;
7074;SDS011;3578;51.568;6.932;2023-04-03T15:33:55;4.93;;;1.67;;
7074;SDS011;3578;51.568;6.932;2023-04-03T15:36:22;4.73;;;1.90;;
7074;SDS011;3578;51.568;6.932;2023-04-03T15:38:49;5.70;;;2.37;;
7074;SDS011;3578;51.568;6.932;2023-04-03T15:41:16;3.87;;;2.40;;
7074;SDS011;3578;51.568;6.932;2023-04-03T15:43:43;8.63;;;2.00;;
7074;SDS011;3578;51.568;6.932;2023-04-03T15:46:10;5.67;;;2.17;;
7074;SDS011;3578;51.568;6.932;2023-04-03T15:48:40;9.03;;;1.93;;
7074;SDS011;3578;51.568;6.932;2023-04-03T15:51:07;12.33;;;2.20;;
7074;SDS011;3578;51.568;6.932;2023-04-03T15:53:34;10.23;;;2.70;;
7074;SDS011;3578;51.568;6.932;2023-04-03T15:56:01;6.77;;;2.00;;
7074;SDS011;3578;51.568;6.932;2023-04-03T15:58:29;7.23;;;2.00;;
7074;SDS011;3578;51.568;6.932;2023-04-03T16:00:57;6.13;;;1.93;;
7074;SDS011;3578;51.568;6.932;2023-04-03T16:03:24;10.00;;;2.73;;
7074;SDS011;3578;51.568;6.932;2023-04-03T16:05:52;16.83;;;2.90;;
7074;SDS011;3578;51.568;6.932;2023-04-03T16:08:19;6.60;;;2.23;;